sensor_id;sensor_type;location;lat;lon;timestamp;P1;durP1;ratioP1;P2;durP2;ratioP2
11490;SDS011;5802;52.832;4.758;2023-08-06T00:00:24;2.30;;;1.30;;
11490;SDS011;5802;52.832;4.758;2023-08-06T00:02:51;1.08;;;0.95;;
11490;SDS011;5802;52.832;4.758;2023-08-06T00:05:18;1.67;;;1.20;;
11490;SDS011;5802;52.832;4.758;2023-08-06T00:07:47;1.30;;;1.20;;
11490;SDS011;5802;52.832;4.758;2023-08-06T00:10:14;2.75;;;1.20;;
11490;SDS011;5802;52.832;4.758;2023-08-06T00:12:41;1.55;;;1.20;;
11490;SDS011;5802;52.832;4.758;2023-08-06T00:15:08;1.25;;;1.13;;
11490;SDS011;5802;52.832;4.758;2023-08-06T00:17:35;1.20;;;1.10;;
11490;SDS011;5802;52.832;4.758;2023-08-06T00:20:02;1.70;;;1.30;;
11490;SDS011;5802;52.832;4.758;2023-08-06T00:22:31;2.15;;;0.93;;
11490;SDS011;5802;52.832;4.758;2023-08-06T00:24:59;2.35;;;1.33;;
11490;SDS011;5802;52.832;4.758;2023-08-06T00:27:26;1.60;;;1.02;;
11490;SDS011;5802;52.832;4.758;2023-08-06T00:29:53;1.35;;;1.20;;
11490;SDS011;5802;52.832;4.758;2023-08-06T00:32:19;1.27;;;1.15;;
11490;SDS011;5802;52.832;4.758;2023-08-06T00:34:46;1.23;;;1.10;;
11490;SDS011;5802;52.832;4.758;2023-08-06T00:37:14;1.52;;;0.80;;
11490;SDS011;5802;52.832;4.758;2023-08-06T00:39:41;1.55;;;1.00;;
11490;SDS011;5802;52.832;4.758;2023-08-06T00:42:09;1.23;;;0.90;;
11490;SDS011;5802;52.832;4.758;2023-08-06T00:44:36;1.70;;;1.02;;
11490;SDS011;5802;52.832;4.758;2023-08-06T00:47:03;1.00;;;0.90;;
11490;SDS011;5802;52.832;4.758;2023-08-06T00:49:31;1.55;;;1.10;;
11490;SDS011;5802;52.832;4.758;2023-08-06T00:51:58;1.40;;;1.17;;
11490;SDS011;5802;52.832;4.758;2023-08-06T00:54:25;1.20;;;1.10;;
11490;SDS011;5802;52.832;4.758;2023-08-06T00:56:53;2.25;;;1.25;;
11490;SDS011;5802;52.832;4.758;2023-08-06T00:59:21;1.30;;;1.10;;
11490;SDS011;5802;52.832;4.758;2023-08-06T01:01:48;0.85;;;0.85;;
11490;SDS011;5802;52.832;4.758;2023-08-06T01:04:15;1.30;;;1.20;;
11490;SDS011;5802;52.832;4.758;2023-08-06T01:06:43;1.25;;;1.05;;
11490;SDS011;5802;52.832;4.758;2023-08-06T01:09:17;1.20;;;0.85;;
11490;SDS011;5802;52.832;4.758;2023-08-06T01:11:54;1.30;;;1.00;;
11490;SDS011;5802;52.832;4.758;2023-08-06T01:14:30;1.27;;;1.05;;
11490;SDS011;5802;52.832;4.758;2023-08-06T01:17:03;1.25;;;0.95;;
11490;SDS011;5802;52.832;4.758;2023-08-06T01:19:32;1.42;;;1.00;;
11490;SDS011;5802;52.832;4.758;2023-08-06T01:22:00;0.98;;;0.88;;
11490;SDS011;5802;52.832;4.758;2023-08-06T01:24:27;1.10;;;1.00;;
11490;SDS011;5802;52.832;4.758;2023-08-06T01:26:55;0.95;;;0.88;;
11490;SDS011;5802;52.832;4.758;2023-08-06T01:29:30;1.13;;;1.00;;
11490;SDS011;5802;52.832;4.758;2023-08-06T01:32:04;1.08;;;0.90;;
11490;SDS011;5802;52.832;4.758;2023-08-06T01:34:33;1.13;;;0.88;;
11490;SDS011;5802;52.832;4.758;2023-08-06T01:37:01;1.27;;;1.00;;
11490;SDS011;5802;52.832;4.758;2023-08-06T01:39:29;1.13;;;0.93;;
11490;SDS011;5802;52.832;4.758;2023-08-06T01:41:59;1.10;;;0.90;;
11490;SDS011;5802;52.832;4.758;2023-08-06T01:44:25;1.17;;;1.08;;
11490;SDS011;5802;52.832;4.758;2023-08-06T01:46:52;1.00;;;0.90;;
11490;SDS011;5802;52.832;4.758;2023-08-06T01:49:19;0.82;;;0.80;;
11490;SDS011;5802;52.832;4.758;2023-08-06T01:51:45;0.80;;;0.80;;
11490;SDS011;5802;52.832;4.758;2023-08-06T01:54:13;1.77;;;1.00;;
11490;SDS011;5802;52.832;4.758;2023-08-06T01:56:40;0.93;;;0.82;;
11490;SDS011;5802;52.832;4.758;2023-08-06T01:59:07;1.50;;;0.95;;
11490;SDS011;5802;52.832;4.758;2023-08-06T02:01:33;0.98;;;0.88;;
11490;SDS011;5802;52.832;4.758;2023-08-06T02:04:00;2.45;;;1.00;;
11490;SDS011;5802;52.832;4.758;2023-08-06T02:06:27;1.13;;;0.95;;
11490;SDS011;5802;52.832;4.758;2023-08-06T02:08:53;1.00;;;0.90;;
11490;SDS011;5802;52.832;4.758;2023-08-06T02:11:21;1.17;;;1.08;;
11490;SDS011;5802;52.832;4.758;2023-08-06T02:13:48;1.20;;;1.02;;
11490;SDS011;5802;52.832;4.758;2023-08-06T02:16:14;1.40;;;1.10;;
11490;SDS011;5802;52.832;4.758;2023-08-06T02:18:41;1.30;;;0.88;;
11490;SDS011;5802;52.832;4.758;2023-08-06T02:21:08;0.93;;;0.75;;
11490;SDS011;5802;52.832;4.758;2023-08-06T02:23:34;1.27;;;0.85;;
11490;SDS011;5802;52.832;4.758;2023-08-06T02:26:01;1.10;;;0.88;;
11490;SDS011;5802;52.832;4.758;2023-08-06T02:28:31;1.30;;;1.08;;
11490;SDS011;5802;52.832;4.758;2023-08-06T02:30:58;0.80;;;0.80;;
11490;SDS011;5802;52.832;4.758;2023-08-06T02:33:24;1.33;;;1.10;;
11490;SDS011;5802;52.832;4.758;2023-08-06T02:35:51;0.95;;;0.85;;
11490;SDS011;5802;52.832;4.758;2023-08-06T02:38:24;1.15;;;0.93;;
11490;SDS011;5802;52.832;4.758;2023-08-06T02:40:51;1.15;;;1.00;;
11490;SDS011;5802;52.832;4.758;2023-08-06T02:43:17;1.10;;;0.90;;
11490;SDS011;5802;52.832;4.758;2023-08-06T02:45:45;0.80;;;0.80;;
11490;SDS011;5802;52.832;4.758;2023-08-06T02:48:12;0.85;;;0.70;;
11490;SDS011;5802;52.832;4.758;2023-08-06T02:50:39;1.20;;;0.90;;
11490;SDS011;5802;52.832;4.758;2023-08-06T02:53:06;1.05;;;0.90;;
11490;SDS011;5802;52.832;4.758;2023-08-06T02:55:33;1.40;;;1.02;;
11490;SDS011;5802;52.832;4.758;2023-08-06T02:58:00;2.00;;;1.10;;
11490;SDS011;5802;52.832;4.758;2023-08-06T03:00:26;0.80;;;0.80;;
11490;SDS011;5802;52.832;4.758;2023-08-06T03:02:54;0.98;;;0.88;;
11490;SDS011;5802;52.832;4.758;2023-08-06T03:05:21;1.33;;;0.98;;
11490;SDS011;5802;52.832;4.758;2023-08-06T03:07:48;0.98;;;0.80;;
11490;SDS011;5802;52.832;4.758;2023-08-06T03:10:14;1.67;;;1.13;;
11490;SDS011;5802;52.832;4.758;2023-08-06T03:12:41;1.25;;;0.88;;
11490;SDS011;5802;52.832;4.758;2023-08-06T03:15:08;1.05;;;0.80;;
11490;SDS011;5802;52.832;4.758;2023-08-06T03:17:35;1.75;;;0.90;;
11490;SDS011;5802;52.832;4.758;2023-08-06T03:20:04;1.30;;;0.80;;
11490;SDS011;5802;52.832;4.758;2023-08-06T03:22:32;1.27;;;1.15;;
11490;SDS011;5802;52.832;4.758;2023-08-06T03:24:58;1.05;;;0.95;;
11490;SDS011;5802;52.832;4.758;2023-08-06T03:27:25;1.15;;;0.90;;
11490;SDS011;5802;52.832;4.758;2023-08-06T03:29:51;1.58;;;1.20;;
11490;SDS011;5802;52.832;4.758;2023-08-06T03:32:18;2.03;;;0.85;;
11490;SDS011;5802;52.832;4.758;2023-08-06T03:34:45;1.23;;;0.93;;
11490;SDS011;5802;52.832;4.758;2023-08-06T03:37:13;1.40;;;1.30;;
11490;SDS011;5802;52.832;4.758;2023-08-06T03:39:40;1.73;;;1.30;;
11490;SDS011;5802;52.832;4.758;2023-08-06T03:42:06;1.20;;;1.08;;
11490;SDS011;5802;52.832;4.758;2023-08-06T03:44:33;1.20;;;1.10;;
11490;SDS011;5802;52.832;4.758;2023-08-06T03:47:00;1.27;;;1.00;;
11490;SDS011;5802;52.832;4.758;2023-08-06T03:49:26;1.23;;;1.08;;
11490;SDS011;5802;52.832;4.758;2023-08-06T03:51:53;1.40;;;1.05;;
11490;SDS011;5802;52.832;4.758;2023-08-06T03:54:21;1.27;;;1.13;;
11490;SDS011;5802;52.832;4.758;2023-08-06T03:56:47;1.23;;;1.00;;
11490;SDS011;5802;52.832;4.758;2023-08-06T03:59:14;1.20;;;1.05;;
11490;SDS011;5802;52.832;4.758;2023-08-06T04:01:41;1.38;;;1.02;;
11490;SDS011;5802;52.832;4.758;2023-08-06T04:04:07;1.02;;;0.93;;
11490;SDS011;5802;52.832;4.758;2023-08-06T04:06:34;1.17;;;1.05;;
11490;SDS011;5802;52.832;4.758;2023-08-06T04:09:00;1.20;;;1.10;;
11490;SDS011;5802;52.832;4.758;2023-08-06T04:11:29;1.63;;;1.20;;
11490;SDS011;5802;52.832;4.758;2023-08-06T04:13:55;1.60;;;1.20;;
11490;SDS011;5802;52.832;4.758;2023-08-06T04:16:22;1.10;;;1.00;;
11490;SDS011;5802;52.832;4.758;2023-08-06T04:18:49;1.48;;;1.17;;
11490;SDS011;5802;52.832;4.758;2023-08-06T04:21:15;1.55;;;1.10;;
11490;SDS011;5802;52.832;4.758;2023-08-06T04:23:42;2.20;;;1.33;;
11490;SDS011;5802;52.832;4.758;2023-08-06T04:26:08;1.70;;;1.20;;
11490;SDS011;5802;52.832;4.758;2023-08-06T04:28:36;1.33;;;1.17;;
11490;SDS011;5802;52.832;4.758;2023-08-06T04:31:03;1.73;;;1.20;;
11490;SDS011;5802;52.832;4.758;2023-08-06T04:33:30;1.30;;;1.20;;
11490;SDS011;5802;52.832;4.758;2023-08-06T04:35:56;1.15;;;1.00;;
11490;SDS011;5802;52.832;4.758;2023-08-06T04:38:23;1.25;;;1.15;;
11490;SDS011;5802;52.832;4.758;2023-08-06T04:40:50;1.10;;;1.00;;
11490;SDS011;5802;52.832;4.758;2023-08-06T04:43:17;1.08;;;0.98;;
11490;SDS011;5802;52.832;4.758;2023-08-06T04:45:48;1.08;;;0.95;;
11490;SDS011;5802;52.832;4.758;2023-08-06T04:48:15;1.48;;;1.20;;
11490;SDS011;5802;52.832;4.758;2023-08-06T04:50:45;1.25;;;1.10;;
11490;SDS011;5802;52.832;4.758;2023-08-06T04:53:13;1.30;;;1.20;;
11490;SDS011;5802;52.832;4.758;2023-08-06T04:55:39;1.38;;;1.17;;
11490;SDS011;5802;52.832;4.758;2023-08-06T04:58:06;1.38;;;1.15;;
11490;SDS011;5802;52.832;4.758;2023-08-06T05:00:34;1.30;;;1.20;;
11490;SDS011;5802;52.832;4.758;2023-08-06T05:03:02;1.33;;;1.20;;
11490;SDS011;5802;52.832;4.758;2023-08-06T05:05:29;1.50;;;1.20;;
11490;SDS011;5802;52.832;4.758;2023-08-06T05:07:56;1.80;;;1.27;;
11490;SDS011;5802;52.832;4.758;2023-08-06T05:10:24;1.10;;;1.00;;
11490;SDS011;5802;52.832;4.758;2023-08-06T05:12:51;1.50;;;1.35;;
11490;SDS011;5802;52.832;4.758;2023-08-06T05:15:17;1.40;;;1.20;;
11490;SDS011;5802;52.832;4.758;2023-08-06T05:17:44;1.20;;;1.10;;
11490;SDS011;5802;52.832;4.758;2023-08-06T05:20:12;1.30;;;1.20;;
11490;SDS011;5802;52.832;4.758;2023-08-06T05:22:39;1.30;;;1.10;;
11490;SDS011;5802;52.832;4.758;2023-08-06T05:25:06;1.35;;;1.00;;
11490;SDS011;5802;52.832;4.758;2023-08-06T05:27:33;1.45;;;1.10;;
11490;SDS011;5802;52.832;4.758;2023-08-06T05:30:00;1.70;;;1.13;;
11490;SDS011;5802;52.832;4.758;2023-08-06T05:32:27;1.13;;;1.02;;
11490;SDS011;5802;52.832;4.758;2023-08-06T05:34:53;1.40;;;1.30;;
11490;SDS011;5802;52.832;4.758;2023-08-06T05:37:21;1.85;;;1.20;;
11490;SDS011;5802;52.832;4.758;2023-08-06T05:39:48;1.50;;;1.13;;
11490;SDS011;5802;52.832;4.758;2023-08-06T05:42:15;2.85;;;1.20;;
11490;SDS011;5802;52.832;4.758;2023-08-06T05:44:42;1.63;;;1.35;;
11490;SDS011;5802;52.832;4.758;2023-08-06T05:47:09;1.42;;;1.10;;
11490;SDS011;5802;52.832;4.758;2023-08-06T05:49:35;1.38;;;1.20;;
11490;SDS011;5802;52.832;4.758;2023-08-06T05:52:02;2.10;;;1.30;;
11490;SDS011;5802;52.832;4.758;2023-08-06T05:54:32;1.60;;;1.50;;
11490;SDS011;5802;52.832;4.758;2023-08-06T05:56:59;1.20;;;1.10;;
11490;SDS011;5802;52.832;4.758;2023-08-06T05:59:25;1.38;;;1.27;;
11490;SDS011;5802;52.832;4.758;2023-08-06T06:01:52;1.40;;;1.30;;
11490;SDS011;5802;52.832;4.758;2023-08-06T06:04:19;1.30;;;1.20;;
11490;SDS011;5802;52.832;4.758;2023-08-06T06:06:46;1.20;;;1.10;;
11490;SDS011;5802;52.832;4.758;2023-08-06T06:09:12;1.45;;;1.27;;
11490;SDS011;5802;52.832;4.758;2023-08-06T06:11:40;1.55;;;1.30;;
11490;SDS011;5802;52.832;4.758;2023-08-06T06:14:07;1.33;;;1.23;;
11490;SDS011;5802;52.832;4.758;2023-08-06T06:16:34;1.45;;;1.15;;
11490;SDS011;5802;52.832;4.758;2023-08-06T06:19:00;1.35;;;1.25;;
11490;SDS011;5802;52.832;4.758;2023-08-06T06:21:27;1.20;;;1.10;;
11490;SDS011;5802;52.832;4.758;2023-08-06T06:23:54;3.58;;;1.05;;
11490;SDS011;5802;52.832;4.758;2023-08-06T06:26:21;1.35;;;1.10;;
11490;SDS011;5802;52.832;4.758;2023-08-06T06:28:49;1.27;;;1.17;;
11490;SDS011;5802;52.832;4.758;2023-08-06T06:31:16;1.60;;;1.35;;
11490;SDS011;5802;52.832;4.758;2023-08-06T06:33:43;1.30;;;1.20;;
11490;SDS011;5802;52.832;4.758;2023-08-06T06:36:09;1.50;;;1.25;;
11490;SDS011;5802;52.832;4.758;2023-08-06T06:38:36;1.48;;;1.17;;
11490;SDS011;5802;52.832;4.758;2023-08-06T06:41:03;1.95;;;1.20;;
11490;SDS011;5802;52.832;4.758;2023-08-06T06:43:30;2.05;;;1.40;;
11490;SDS011;5802;52.832;4.758;2023-08-06T06:45:58;1.27;;;1.17;;
11490;SDS011;5802;52.832;4.758;2023-08-06T06:48:27;1.83;;;1.30;;
11490;SDS011;5802;52.832;4.758;2023-08-06T06:50:54;1.60;;;1.20;;
11490;SDS011;5802;52.832;4.758;2023-08-06T06:53:22;2.42;;;1.40;;
11490;SDS011;5802;52.832;4.758;2023-08-06T06:55:52;1.38;;;1.20;;
11490;SDS011;5802;52.832;4.758;2023-08-06T06:58:19;1.42;;;1.23;;
11490;SDS011;5802;52.832;4.758;2023-08-06T07:00:45;1.50;;;1.20;;
11490;SDS011;5802;52.832;4.758;2023-08-06T07:03:13;1.60;;;1.27;;
11490;SDS011;5802;52.832;4.758;2023-08-06T07:05:40;1.30;;;1.20;;
11490;SDS011;5802;52.832;4.758;2023-08-06T07:08:07;1.30;;;1.20;;
11490;SDS011;5802;52.832;4.758;2023-08-06T07:10:34;1.23;;;1.10;;
11490;SDS011;5802;52.832;4.758;2023-08-06T07:13:01;1.70;;;1.20;;
11490;SDS011;5802;52.832;4.758;2023-08-06T07:15:27;1.20;;;1.10;;
11490;SDS011;5802;52.832;4.758;2023-08-06T07:17:54;1.20;;;1.10;;
11490;SDS011;5802;52.832;4.758;2023-08-06T07:20:22;1.40;;;1.10;;
11490;SDS011;5802;52.832;4.758;2023-08-06T07:22:49;1.23;;;1.13;;
11490;SDS011;5802;52.832;4.758;2023-08-06T07:25:16;1.30;;;1.10;;
11490;SDS011;5802;52.832;4.758;2023-08-06T07:27:42;1.60;;;1.20;;
11490;SDS011;5802;52.832;4.758;2023-08-06T07:30:09;1.25;;;1.15;;
11490;SDS011;5802;52.832;4.758;2023-08-06T07:32:36;1.48;;;1.20;;
11490;SDS011;5802;52.832;4.758;2023-08-06T07:35:03;2.63;;;1.27;;
11490;SDS011;5802;52.832;4.758;2023-08-06T07:37:32;1.30;;;1.20;;
11490;SDS011;5802;52.832;4.758;2023-08-06T07:39:58;1.23;;;1.10;;
11490;SDS011;5802;52.832;4.758;2023-08-06T07:42:25;1.42;;;1.20;;
11490;SDS011;5802;52.832;4.758;2023-08-06T07:44:52;1.40;;;1.30;;
11490;SDS011;5802;52.832;4.758;2023-08-06T07:47:20;1.05;;;0.95;;
11490;SDS011;5802;52.832;4.758;2023-08-06T07:49:47;1.58;;;1.10;;
11490;SDS011;5802;52.832;4.758;2023-08-06T07:52:14;1.60;;;1.30;;
11490;SDS011;5802;52.832;4.758;2023-08-06T07:54:42;1.15;;;1.02;;
11490;SDS011;5802;52.832;4.758;2023-08-06T07:57:09;1.25;;;1.10;;
11490;SDS011;5802;52.832;4.758;2023-08-06T07:59:36;1.20;;;1.08;;
11490;SDS011;5802;52.832;4.758;2023-08-06T08:02:03;1.40;;;1.13;;
11490;SDS011;5802;52.832;4.758;2023-08-06T08:04:30;1.20;;;1.10;;
11490;SDS011;5802;52.832;4.758;2023-08-06T08:06:57;1.42;;;1.30;;
11490;SDS011;5802;52.832;4.758;2023-08-06T08:09:23;1.25;;;1.10;;
11490;SDS011;5802;52.832;4.758;2023-08-06T08:11:51;1.38;;;1.20;;
11490;SDS011;5802;52.832;4.758;2023-08-06T08:14:18;1.08;;;0.98;;
11490;SDS011;5802;52.832;4.758;2023-08-06T08:16:45;1.33;;;1.20;;
11490;SDS011;5802;52.832;4.758;2023-08-06T08:19:12;1.30;;;1.20;;
11490;SDS011;5802;52.832;4.758;2023-08-06T08:21:38;1.23;;;1.10;;
11490;SDS011;5802;52.832;4.758;2023-08-06T08:24:05;1.30;;;1.20;;
11490;SDS011;5802;52.832;4.758;2023-08-06T08:26:32;1.30;;;1.00;;
11490;SDS011;5802;52.832;4.758;2023-08-06T08:29:00;1.48;;;1.35;;
11490;SDS011;5802;52.832;4.758;2023-08-06T08:31:26;1.73;;;1.08;;
11490;SDS011;5802;52.832;4.758;2023-08-06T08:33:53;1.90;;;1.30;;
11490;SDS011;5802;52.832;4.758;2023-08-06T08:36:20;1.10;;;1.00;;
11490;SDS011;5802;52.832;4.758;2023-08-06T08:38:47;1.33;;;1.00;;
11490;SDS011;5802;52.832;4.758;2023-08-06T08:41:15;1.48;;;1.30;;
11490;SDS011;5802;52.832;4.758;2023-08-06T08:43:42;1.17;;;1.08;;
11490;SDS011;5802;52.832;4.758;2023-08-06T08:46:10;1.77;;;1.25;;
11490;SDS011;5802;52.832;4.758;2023-08-06T08:48:39;1.30;;;1.10;;
11490;SDS011;5802;52.832;4.758;2023-08-06T08:51:06;1.40;;;1.30;;
11490;SDS011;5802;52.832;4.758;2023-08-06T08:53:33;1.45;;;1.30;;
11490;SDS011;5802;52.832;4.758;2023-08-06T08:56:04;1.55;;;1.27;;
11490;SDS011;5802;52.832;4.758;2023-08-06T08:58:32;1.17;;;1.08;;
11490;SDS011;5802;52.832;4.758;2023-08-06T09:00:58;2.35;;;1.35;;
11490;SDS011;5802;52.832;4.758;2023-08-06T09:03:27;1.10;;;1.00;;
11490;SDS011;5802;52.832;4.758;2023-08-06T09:05:54;2.15;;;1.13;;
11490;SDS011;5802;52.832;4.758;2023-08-06T09:08:24;1.65;;;1.30;;
11490;SDS011;5802;52.832;4.758;2023-08-06T09:10:54;1.20;;;1.10;;
11490;SDS011;5802;52.832;4.758;2023-08-06T09:13:23;1.25;;;1.15;;
11490;SDS011;5802;52.832;4.758;2023-08-06T09:15:49;1.35;;;1.25;;
11490;SDS011;5802;52.832;4.758;2023-08-06T09:18:24;1.33;;;1.17;;
11490;SDS011;5802;52.832;4.758;2023-08-06T09:20:54;1.83;;;1.23;;
11490;SDS011;5802;52.832;4.758;2023-08-06T09:23:20;1.20;;;1.10;;
11490;SDS011;5802;52.832;4.758;2023-08-06T09:25:53;1.23;;;1.13;;
11490;SDS011;5802;52.832;4.758;2023-08-06T09:28:19;1.30;;;1.20;;
11490;SDS011;5802;52.832;4.758;2023-08-06T09:30:47;1.50;;;1.00;;
11490;SDS011;5802;52.832;4.758;2023-08-06T09:33:14;1.50;;;1.30;;
11490;SDS011;5802;52.832;4.758;2023-08-06T09:35:45;1.30;;;1.13;;
11490;SDS011;5802;52.832;4.758;2023-08-06T09:38:13;1.58;;;1.20;;
11490;SDS011;5802;52.832;4.758;2023-08-06T09:40:40;2.33;;;1.10;;
11490;SDS011;5802;52.832;4.758;2023-08-06T09:43:07;1.15;;;1.05;;
11490;SDS011;5802;52.832;4.758;2023-08-06T09:45:34;1.40;;;1.20;;
11490;SDS011;5802;52.832;4.758;2023-08-06T09:48:02;2.10;;;1.30;;
11490;SDS011;5802;52.832;4.758;2023-08-06T09:50:31;1.55;;;1.30;;
11490;SDS011;5802;52.832;4.758;2023-08-06T09:52:59;1.17;;;1.05;;
11490;SDS011;5802;52.832;4.758;2023-08-06T09:55:28;2.05;;;1.20;;
11490;SDS011;5802;52.832;4.758;2023-08-06T09:57:54;2.63;;;1.10;;
11490;SDS011;5802;52.832;4.758;2023-08-06T10:00:22;1.80;;;1.30;;
11490;SDS011;5802;52.832;4.758;2023-08-06T10:02:49;2.22;;;1.38;;
11490;SDS011;5802;52.832;4.758;2023-08-06T10:05:19;5.13;;;1.75;;
11490;SDS011;5802;52.832;4.758;2023-08-06T10:07:46;5.25;;;1.85;;
11490;SDS011;5802;52.832;4.758;2023-08-06T10:10:14;7.30;;;2.03;;
11490;SDS011;5802;52.832;4.758;2023-08-06T10:12:43;8.38;;;1.80;;
11490;SDS011;5802;52.832;4.758;2023-08-06T10:15:15;5.45;;;1.80;;
11490;SDS011;5802;52.832;4.758;2023-08-06T10:17:45;4.25;;;2.10;;
11490;SDS011;5802;52.832;4.758;2023-08-06T10:20:14;6.10;;;2.00;;
11490;SDS011;5802;52.832;4.758;2023-08-06T10:22:42;4.65;;;1.73;;
11490;SDS011;5802;52.832;4.758;2023-08-06T10:25:10;3.63;;;2.08;;
11490;SDS011;5802;52.832;4.758;2023-08-06T10:27:39;3.67;;;1.85;;
11490;SDS011;5802;52.832;4.758;2023-08-06T10:30:22;3.55;;;1.70;;
11490;SDS011;5802;52.832;4.758;2023-08-06T10:32:50;2.70;;;1.75;;
11490;SDS011;5802;52.832;4.758;2023-08-06T10:35:28;2.80;;;1.70;;
11490;SDS011;5802;52.832;4.758;2023-08-06T10:37:57;2.63;;;1.65;;
11490;SDS011;5802;52.832;4.758;2023-08-06T10:40:25;3.30;;;1.60;;
11490;SDS011;5802;52.832;4.758;2023-08-06T10:42:54;2.28;;;1.48;;
11490;SDS011;5802;52.832;4.758;2023-08-06T10:45:21;3.17;;;1.75;;
11490;SDS011;5802;52.832;4.758;2023-08-06T10:47:53;2.15;;;1.73;;
11490;SDS011;5802;52.832;4.758;2023-08-06T10:50:20;3.00;;;1.60;;
11490;SDS011;5802;52.832;4.758;2023-08-06T10:52:47;4.07;;;1.42;;
11490;SDS011;5802;52.832;4.758;2023-08-06T10:55:14;3.25;;;1.55;;
11490;SDS011;5802;52.832;4.758;2023-08-06T10:57:48;3.25;;;1.38;;
11490;SDS011;5802;52.832;4.758;2023-08-06T11:00:16;1.92;;;1.50;;
11490;SDS011;5802;52.832;4.758;2023-08-06T11:02:43;1.67;;;1.30;;
11490;SDS011;5802;52.832;4.758;2023-08-06T11:05:10;1.80;;;1.50;;
11490;SDS011;5802;52.832;4.758;2023-08-06T11:07:37;4.50;;;1.48;;
11490;SDS011;5802;52.832;4.758;2023-08-06T11:10:05;2.20;;;1.40;;
11490;SDS011;5802;52.832;4.758;2023-08-06T11:12:33;2.10;;;1.65;;
11490;SDS011;5802;52.832;4.758;2023-08-06T11:15:00;2.15;;;1.50;;
11490;SDS011;5802;52.832;4.758;2023-08-06T11:17:32;1.92;;;1.60;;
11490;SDS011;5802;52.832;4.758;2023-08-06T11:19:59;2.00;;;1.40;;
11490;SDS011;5802;52.832;4.758;2023-08-06T11:22:26;2.13;;;1.40;;
11490;SDS011;5802;52.832;4.758;2023-08-06T11:24:53;1.65;;;1.40;;
11490;SDS011;5802;52.832;4.758;2023-08-06T11:27:20;1.70;;;1.25;;
11490;SDS011;5802;52.832;4.758;2023-08-06T11:29:47;2.15;;;1.45;;
11490;SDS011;5802;52.832;4.758;2023-08-06T11:32:14;2.60;;;1.50;;
11490;SDS011;5802;52.832;4.758;2023-08-06T11:34:42;1.50;;;1.40;;
11490;SDS011;5802;52.832;4.758;2023-08-06T11:37:12;1.63;;;1.38;;
11490;SDS011;5802;52.832;4.758;2023-08-06T11:39:39;3.28;;;1.63;;
11490;SDS011;5802;52.832;4.758;2023-08-06T11:42:12;1.58;;;1.40;;
11490;SDS011;5802;52.832;4.758;2023-08-06T11:44:40;3.47;;;1.40;;
11490;SDS011;5802;52.832;4.758;2023-08-06T11:47:11;2.63;;;1.45;;
11490;SDS011;5802;52.832;4.758;2023-08-06T11:49:39;2.00;;;1.48;;
11490;SDS011;5802;52.832;4.758;2023-08-06T11:52:10;2.22;;;1.40;;
11490;SDS011;5802;52.832;4.758;2023-08-06T11:54:39;1.83;;;1.52;;
11490;SDS011;5802;52.832;4.758;2023-08-06T11:57:05;3.05;;;1.50;;
11490;SDS011;5802;52.832;4.758;2023-08-06T11:59:32;1.52;;;1.25;;
11490;SDS011;5802;52.832;4.758;2023-08-06T12:01:59;3.08;;;1.67;;
11490;SDS011;5802;52.832;4.758;2023-08-06T12:04:27;2.97;;;1.40;;
11490;SDS011;5802;52.832;4.758;2023-08-06T12:06:55;3.92;;;1.60;;
11490;SDS011;5802;52.832;4.758;2023-08-06T12:09:31;2.55;;;1.30;;
11490;SDS011;5802;52.832;4.758;2023-08-06T12:11:57;2.30;;;1.40;;
11490;SDS011;5802;52.832;4.758;2023-08-06T12:14:24;2.80;;;1.38;;
11490;SDS011;5802;52.832;4.758;2023-08-06T12:16:51;1.90;;;1.20;;
11490;SDS011;5802;52.832;4.758;2023-08-06T12:19:17;3.40;;;1.35;;
11490;SDS011;5802;52.832;4.758;2023-08-06T12:21:44;3.33;;;1.25;;
11490;SDS011;5802;52.832;4.758;2023-08-06T12:24:12;1.65;;;1.30;;
11490;SDS011;5802;52.832;4.758;2023-08-06T12:26:38;1.40;;;1.30;;
11490;SDS011;5802;52.832;4.758;2023-08-06T12:29:05;2.05;;;1.30;;
11490;SDS011;5802;52.832;4.758;2023-08-06T12:31:32;1.67;;;1.40;;
11490;SDS011;5802;52.832;4.758;2023-08-06T12:33:59;1.30;;;1.20;;
11490;SDS011;5802;52.832;4.758;2023-08-06T12:36:25;2.03;;;1.33;;
11490;SDS011;5802;52.832;4.758;2023-08-06T12:38:52;2.15;;;1.55;;
11490;SDS011;5802;52.832;4.758;2023-08-06T12:41:20;2.15;;;1.40;;
11490;SDS011;5802;52.832;4.758;2023-08-06T12:43:47;1.10;;;1.00;;
11490;SDS011;5802;52.832;4.758;2023-08-06T12:46:13;1.58;;;1.40;;
11490;SDS011;5802;52.832;4.758;2023-08-06T12:48:40;3.53;;;1.40;;
11490;SDS011;5802;52.832;4.758;2023-08-06T12:51:07;2.53;;;1.30;;
11490;SDS011;5802;52.832;4.758;2023-08-06T12:53:33;1.70;;;1.27;;
11490;SDS011;5802;52.832;4.758;2023-08-06T12:56:00;1.52;;;1.20;;
11490;SDS011;5802;52.832;4.758;2023-08-06T12:58:28;1.73;;;1.20;;
11490;SDS011;5802;52.832;4.758;2023-08-06T13:00:55;1.45;;;1.20;;
11490;SDS011;5802;52.832;4.758;2023-08-06T13:03:22;1.38;;;1.20;;
11490;SDS011;5802;52.832;4.758;2023-08-06T13:05:49;1.88;;;1.30;;
11490;SDS011;5802;52.832;4.758;2023-08-06T13:08:16;1.80;;;1.35;;
11490;SDS011;5802;52.832;4.758;2023-08-06T13:10:43;3.47;;;1.50;;
11490;SDS011;5802;52.832;4.758;2023-08-06T13:13:10;1.55;;;1.23;;
11490;SDS011;5802;52.832;4.758;2023-08-06T13:15:38;1.70;;;1.20;;
11490;SDS011;5802;52.832;4.758;2023-08-06T13:18:04;1.23;;;1.13;;
11490;SDS011;5802;52.832;4.758;2023-08-06T13:20:31;1.35;;;1.20;;
11490;SDS011;5802;52.832;4.758;2023-08-06T13:22:58;1.55;;;1.20;;
11490;SDS011;5802;52.832;4.758;2023-08-06T13:25:26;2.15;;;1.30;;
11490;SDS011;5802;52.832;4.758;2023-08-06T13:27:53;1.67;;;1.50;;
11490;SDS011;5802;52.832;4.758;2023-08-06T13:30:20;1.90;;;1.30;;
11490;SDS011;5802;52.832;4.758;2023-08-06T13:32:49;1.38;;;1.17;;
11490;SDS011;5802;52.832;4.758;2023-08-06T13:35:16;1.40;;;1.10;;
11490;SDS011;5802;52.832;4.758;2023-08-06T13:37:42;2.28;;;1.17;;
11490;SDS011;5802;52.832;4.758;2023-08-06T13:40:09;1.83;;;1.50;;
11490;SDS011;5802;52.832;4.758;2023-08-06T13:42:36;1.77;;;1.10;;
11490;SDS011;5802;52.832;4.758;2023-08-06T13:45:03;2.45;;;1.30;;
11490;SDS011;5802;52.832;4.758;2023-08-06T13:47:33;1.30;;;1.10;;
11490;SDS011;5802;52.832;4.758;2023-08-06T13:50:04;2.22;;;1.20;;
11490;SDS011;5802;52.832;4.758;2023-08-06T13:52:31;2.30;;;1.05;;
11490;SDS011;5802;52.832;4.758;2023-08-06T13:54:58;1.58;;;1.13;;
11490;SDS011;5802;52.832;4.758;2023-08-06T13:57:25;1.10;;;1.00;;
11490;SDS011;5802;52.832;4.758;2023-08-06T13:59:51;2.78;;;1.20;;
11490;SDS011;5802;52.832;4.758;2023-08-06T14:02:18;1.85;;;1.08;;
11490;SDS011;5802;52.832;4.758;2023-08-06T14:04:45;2.15;;;1.20;;
11490;SDS011;5802;52.832;4.758;2023-08-06T14:07:13;2.05;;;1.20;;
11490;SDS011;5802;52.832;4.758;2023-08-06T14:09:39;1.63;;;1.05;;
11490;SDS011;5802;52.832;4.758;2023-08-06T14:12:07;1.20;;;1.02;;
11490;SDS011;5802;52.832;4.758;2023-08-06T14:14:34;3.85;;;1.15;;
11490;SDS011;5802;52.832;4.758;2023-08-06T14:17:00;1.33;;;1.20;;
11490;SDS011;5802;52.832;4.758;2023-08-06T14:19:27;1.27;;;1.00;;
11490;SDS011;5802;52.832;4.758;2023-08-06T14:21:54;1.83;;;1.10;;
11490;SDS011;5802;52.832;4.758;2023-08-06T14:24:23;1.90;;;1.15;;
11490;SDS011;5802;52.832;4.758;2023-08-06T14:26:49;1.77;;;1.17;;
11490;SDS011;5802;52.832;4.758;2023-08-06T14:29:16;2.47;;;1.20;;
11490;SDS011;5802;52.832;4.758;2023-08-06T14:31:43;3.85;;;1.10;;
11490;SDS011;5802;52.832;4.758;2023-08-06T14:34:10;3.08;;;1.00;;
11490;SDS011;5802;52.832;4.758;2023-08-06T14:36:36;2.80;;;1.30;;
11490;SDS011;5802;52.832;4.758;2023-08-06T14:39:03;1.10;;;0.90;;
11490;SDS011;5802;52.832;4.758;2023-08-06T14:41:34;1.48;;;0.90;;
11490;SDS011;5802;52.832;4.758;2023-08-06T14:44:00;1.55;;;0.90;;
11490;SDS011;5802;52.832;4.758;2023-08-06T14:46:27;1.17;;;0.90;;
11490;SDS011;5802;52.832;4.758;2023-08-06T14:48:54;1.50;;;1.00;;
11490;SDS011;5802;52.832;4.758;2023-08-06T14:51:20;1.35;;;0.98;;
11490;SDS011;5802;52.832;4.758;2023-08-06T14:53:48;2.08;;;1.00;;
11490;SDS011;5802;52.832;4.758;2023-08-06T14:56:14;1.73;;;1.05;;
11490;SDS011;5802;52.832;4.758;2023-08-06T14:58:42;1.58;;;1.13;;
11490;SDS011;5802;52.832;4.758;2023-08-06T15:01:09;1.92;;;1.02;;